默认 日期 大小 文件数 浏览量 最新下载 xml
2022.de磁力链接相关资源由用户搜索指令自动获取,结果来源于网络,本站不存储任何资料,亦不承担任何责任,请于24小时内删除,搜索到3283个磁力,用时18ms。
    {"原画出处": {"2022厘米只懂你的她官网.txt": 942, "2022厘米只懂你的她 2022CM 安全高速 ?.url": 57}, "[2022.DEV]家de突いて、逝ってイイですか!?.mp4": 1550719491}
创建时间: 2020-10-08 05:50:15 大小:1.44 GB 文件数量:3 热度:4 最近下载:2024-01-01 05:16:05
    {"原画出处": {"2022厘米只懂你 ... 她官网.txt": 942, "2022厘米只懂你 ... 全高速 ?.url": 57}, "[2022.DEV]渋谷~品 ... ☆未満コミュdeナンパぷら ...
创建时间: 2020-10-11 21:39:32 大小:1.79 GB 文件数量:3 热度:92 最近下载:2025-10-05 14:28:02
    {"109th.Tour.de.France.2022.press.kit-Z37O.nfo": 7883, "109th.Tour.de.France.2022.press.kit-Z37O.pdf": 9269011}
创建时间: 2021-10-21 13:20:02 大小:8.85 MB 文件数量:2 热度:4 最近下载:2025-01-27 07:43:05
    ... flac": 32400953, "30. La Musique De Bébé - Mystery.flac": ... flac": 33366082, "16. La Musique De Bébé - Lanterns.flac": 27264939 ... , "20. La Musique De Bébé - Everlast.flac": 30215829 ... , "31. La Musique De Bébé - Decorate.flac": ...
创建时间: 2021-10-27 10:42:05 大小:1.37 GB 文件数量:52 热度:10 最近下载:2025-09-16 18:24:05
    ... , Royce Do Cavaco, Sociedade Rosas de Ouro - Sanitatem.mp3": 5677273, ... Independente Tricolor - Brava Gente, É Hora de Acordar!.mp3": 5601268, "25 - Liga ... - O Mundo Precisa de Cada um de Nós. A Vila ... s. Águia de Ouro - Afoxé de Oxalá No 'Cortejo de Babá', um ...
创建时间: 2021-12-16 06:41:19 大小:178.65 MB 文件数量:35 热度:6 最近下载:2025-07-21 13:03:02
    ... Do Estacio - Festa Do Ciro De Nazaré.mp3": 6243013, "17 ... Viradouro, Zé Paulo Sierra - Viradouro De Alma Lavada.mp3": 11130845, "19 ... "15 - Nego - É De Arrepiar! Inclui trecho de As Rosas Não ... Novos Ventos, Novos Tempos - Historia de uma Integracão.mp3": 4221669 ...
创建时间: 2021-12-16 08:19:25 大小:132.37 MB 文件数量:26 热度:4 最近下载:2025-01-06 06:33:05
    ... Mocidade - Ganga Zumbi - Expressão De Uma Raça.mp3": 4479529 ... Tempo - O Olhar Suiço De Clovis Bornay.mp3": 6036678, "24 ... úsica Na Alma, Inspiração De Uma Nação.mp3": 6080637 ... .mp3": 4578982, "21 - Wantuir Cardeal - De Lambida Em Lambida, A Tijuca ...
创建时间: 2021-12-16 20:26:08 大小:151.54 MB 文件数量:31 热度:4 最近下载:2025-01-09 19:26:11
    ... 5138149, "06 - Marquinho Art'Samba, De Mangueira - Angenor, José & Laurindo ... 5576356, "18 - Mocidade Independente De Padre Miguel, Wander Pires - ... - Imaginario, 450 Janeiros De Uma Cidade Surreal.mp3": 6058783 ... .S. Portela, Gilsinho - De Repente De Lá Pra Cá E ...
创建时间: 2021-12-21 23:37:08 大小:511 MB 文件数量:98 热度:4 最近下载:2025-01-03 14:18:05
    ... Zé Paulo Sierra - Viradouro De Alma Lavada.mp3": 5413417, " ... 08 - Marquinho Art'Samba, De Mangueira - Angenor, José & Laurindo ... Wander Pires, Mocidade Independente De Padre Miguel - Batuque Ao ... , "22 - Mocidade Independente De Padre Miguel, Wander Pires - ...
创建时间: 2021-12-24 23:27:11 大小:275.66 MB 文件数量:55 热度:4 最近下载:2025-01-27 07:30:02
    {"Cross-Country.2022.01.01.Tour.de.Ski.Stage.4.720p.h264-NX.mkv": 2307441663}
创建时间: 2022-01-02 15:31:37 大小:2.15 GB 文件数量:1 热度:6 最近下载:2025-07-30 06:55:03
    ... .mp3": 3808746, "06 - Desejo De Menina - Moldura.mp3": 3652012, ... mp3": 3279822, "02 - Desejo De Menina - Vida Vazia.mp3": ... mp3": 2864970, "05 - Desejo De Menina - Cumplicidade.mp3": 3046365, ... 39 - Walkyria Santos, Desejo De Menina - Tentando Me Evitar.mp3 ...
创建时间: 2022-01-03 14:16:26 大小:176.2 MB 文件数量:51 热度:4 最近下载:2025-01-04 16:15:09
    ... 3107189, "10 - Cavalo De Pau - Juras De Amor.mp3": 3341390, "35 ... 2746643, "20 - Cavalo De Pau - Bichinho de Estimação.mp3": 2827857 ... 2476153, "05 - Cavalo De Pau - Brincar de Amar - Ao Vivo.mp3 ... 17 - Cavalo De Pau - Bichinho de Estimação Nosso Caso de Amor - ...
创建时间: 2022-01-03 14:45:37 大小:154.25 MB 文件数量:51 热度:8 最近下载:2025-09-20 06:55:02
    ... Destino.mp3": 3331480, "23 - Noda de Caju - É Assim.mp3": 3262559, " ... mp3": 3706717, "18 - Noda de Caju - Simples Olhar.mp3": ... 3838677, "26 - Noda de Caju - Quatro Semanas De Amor.mp3": 3161975, " ... 3611256, "21 - Noda de Caju - Sonho de Amor - Ao Vivo.mp3 ...
创建时间: 2022-01-03 17:53:27 大小:159.87 MB 文件数量:51 热度:3 最近下载:2025-01-06 06:27:01
    ... .mp3": 2879406, "12 - Rita De Cássia - Pra Gente Voltar ... 2456020, "04 - Rita De Cássia, Redondo - Jeito De Amar.mp3": 3894553 ... 3255931, "43 - Rita De Cássia - Bichinho de Estimacão - Acústico ... Rita De Cássia - Festa de Vaquejada.mp3": 2596822, "27 - Rita De C ...
创建时间: 2022-01-03 23:11:24 大小:146.57 MB 文件数量:51 热度:7 最近下载:2025-05-16 09:28:01
    {"Readme.txt": 209, "Operation Fortune Ruse de guerre.2022.1080p.BrRip.HD.avi": 565446593}
创建时间: 2022-01-04 08:54:11 大小:539.25 MB 文件数量:2 热度:8 最近下载:2025-01-11 05:46:05
    {"Minoli D. High-Density and De-Densified Smart Campus Commun.2022.pdf": 27702728}
创建时间: 2022-01-04 16:34:52 大小:26.42 MB 文件数量:1 热度:5 最近下载:2025-08-07 00:39:01
    ... , "07 - Rastapé - Colo de Menina.mp3": 3265888, "36 - Peixel ... "18 - Clara Nunes - Feira De Mangaio.mp3": 3193611, "20 - ... 3323183, "11 - Fulô de Mandacaru - Vida de Sertanejo.mp3": 1892136, "45 ... "31 - Dominguinhos - Numa Sala de Reboco - Ao Vivo.mp3": 1341640 ...
创建时间: 2022-01-04 16:47:05 大小:162.99 MB 文件数量:51 热度:5 最近下载:2025-02-09 09:44:01
    {"Cross-Country.2022.01.03.Tour.de.Ski.Stage.5.Men.720p.h264-NX.mkv": 1177916093, "Cross-Country.2022.01.03.Tour.de.Ski.Stage.5.Ladies.720p.h264-NX.mkv": 901896220}
创建时间: 2022-01-05 09:29:23 大小:1.94 GB 文件数量:2 热度:4 最近下载:2025-01-04 20:09:08
    {"Cross-Country.2022.01.04.Tour.de.Ski.Stage.6.Men.720p.h264-NX.mkv": 946300220, "Cross-Country.2022.01.04.Tour.de.Ski.Stage.6.Ladies.720p.h264-NX.mkv": 1065136149}
创建时间: 2022-01-05 10:28:17 大小:1.87 GB 文件数量:2 热度:10 最近下载:2025-07-30 10:31:05
    ... - 7500 (25 Jahre De Fetzer) - Front.png": 434852, "2022 - De Fetzer - 7500 (25 ... Jahre De Fetzer)_tracklist.txt ...
创建时间: 2026-02-25 19:19:49 大小:119.78 MB 文件数量:17 热度:0